createdAt,value
2022-08-30T00:00:08.869Z,100144.84
2022-08-30T00:02:37.885Z,100143.13
2022-08-30T00:05:06.290Z,100149.22
2022-08-30T00:07:34.589Z,100155.25
2022-08-30T00:10:02.200Z,100151.81
2022-08-30T00:12:30.301Z,100163.09
2022-08-30T00:14:58.116Z,100154.41
2022-08-30T00:17:26.506Z,100152.69
2022-08-30T00:19:56.780Z,100162.31
2022-08-30T00:22:24.581Z,100158.91
2022-08-30T00:24:53.073Z,100164.97
2022-08-30T00:27:20.636Z,100164.97
2022-08-30T00:29:48.248Z,100172.84
2022-08-30T00:32:16.358Z,100168.50
2022-08-30T00:34:44.027Z,100170.31
2022-08-30T00:37:13.145Z,100168.63
2022-08-30T00:39:40.785Z,100167.84
2022-08-30T00:42:09.004Z,100172.34
2022-08-30T00:44:36.828Z,100164.59
2022-08-30T00:47:04.937Z,100156.81
2022-08-30T00:49:34.486Z,100157.69
2022-08-30T00:52:03.251Z,100166.34
2022-08-30T00:54:36.980Z,100168.91
2022-08-30T00:57:05.918Z,100165.47
2022-08-30T00:59:34.443Z,100162.94
2022-08-30T01:02:03.249Z,100163.81
2022-08-30T01:04:32.686Z,100167.38
2022-08-30T01:07:01.010Z,100163.06
2022-08-30T01:09:29.729Z,100164.81
2022-08-30T01:11:58.735Z,100164.84
2022-08-30T01:14:27.084Z,100165.72
2022-08-30T01:16:57.616Z,100168.34
2022-08-30T01:19:36.152Z,100157.84
2022-08-30T01:22:11.518Z,100156.09
2022-08-30T01:24:40.564Z,100160.38
2022-08-30T01:27:08.241Z,100158.63
2022-08-30T01:29:36.549Z,100160.31
2022-08-30T01:32:06.965Z,100162.03
2022-08-30T01:34:34.606Z,100157.66
2022-08-30T01:37:02.582Z,100153.31
2022-08-30T01:39:30.504Z,100148.16
2022-08-30T01:41:59.840Z,100150.69
2022-08-30T01:44:27.463Z,100162.00
2022-08-30T01:46:55.280Z,100161.13
2022-08-30T01:49:26.037Z,100157.66
2022-08-30T01:52:00.490Z,100163.75
2022-08-30T01:54:36.597Z,100170.69
2022-08-30T01:57:09.826Z,100164.59
2022-08-30T01:59:38.021Z,100160.22
2022-08-30T02:02:07.290Z,100164.50
2022-08-30T02:04:36.626Z,100157.47
2022-08-30T02:07:04.866Z,100157.53
2022-08-30T02:09:32.561Z,100155.06
2022-08-30T02:12:00.219Z,100149.03
2022-08-30T02:14:29.226Z,100153.41
2022-08-30T02:16:56.809Z,100153.47
2022-08-30T02:19:24.500Z,100155.22
2022-08-30T02:21:52.436Z,100154.38
2022-08-30T02:24:20.055Z,100156.06
2022-08-30T02:26:48.542Z,100155.25
2022-08-30T02:29:16.364Z,100160.47
2022-08-30T02:31:45.324Z,100156.16
2022-08-30T02:34:13.130Z,100153.56
2022-08-30T02:36:41.731Z,100150.13
2022-08-30T02:39:09.817Z,100151.00
2022-08-30T02:41:38.181Z,100141.44
2022-08-30T02:44:06.335Z,100144.06
2022-08-30T02:46:34.755Z,100144.06
2022-08-30T02:49:29.954Z,100131.94
2022-08-30T02:51:52.897Z,100134.53
2022-08-30T02:54:20.628Z,100141.47
2022-08-30T02:56:48.532Z,100131.91
2022-08-30T02:59:16.564Z,100125.84
2022-08-30T03:01:44.331Z,100126.75
2022-08-30T03:04:13.437Z,100113.75
2022-08-30T03:06:41.074Z,100122.44
2022-08-30T03:09:08.810Z,100125.03
2022-08-30T03:11:37.527Z,100119.78
2022-08-30T03:14:05.337Z,100123.25
2022-08-30T03:16:33.071Z,100114.53
2022-08-30T03:19:00.750Z,100120.59
2022-08-30T03:21:29.792Z,100111.06
2022-08-30T03:23:57.436Z,100112.81
2022-08-30T03:26:25.061Z,100106.72
2022-08-30T03:28:53.121Z,100105.88
2022-08-30T03:31:20.869Z,100106.72
2022-08-30T03:33:48.553Z,100111.94
2022-08-30T03:36:16.143Z,100108.44
2022-08-30T03:38:45.124Z,100115.41
2022-08-30T03:41:12.760Z,100123.22
2022-08-30T03:43:40.800Z,100121.53
2022-08-30T03:46:12.039Z,100126.75
2022-08-30T03:48:39.688Z,100118.09
2022-08-30T03:51:07.577Z,100118.13
2022-08-30T03:53:35.552Z,100112.03
2022-08-30T03:56:05.158Z,100123.31
2022-08-30T03:58:33.069Z,100111.16
2022-08-30T04:01:00.931Z,100120.69
2022-08-30T04:03:29.312Z,100114.63
2022-08-30T04:05:57.607Z,100119.81
2022-08-30T04:08:25.832Z,100123.28
2022-08-30T04:10:54.313Z,100119.84
2022-08-30T04:13:25.214Z,100126.78
2022-08-30T04:15:52.927Z,100128.50
2022-08-30T04:18:20.561Z,100124.13
2022-08-30T04:20:48.327Z,100128.47
2022-08-30T04:23:16.686Z,100131.94
2022-08-30T04:25:44.585Z,100131.06
2022-08-30T04:28:12.757Z,100124.06
2022-08-30T04:30:43.089Z,100126.72
2022-08-30T04:33:11.065Z,100127.59
2022-08-30T04:35:43.044Z,100138.84
2022-08-30T04:38:11.077Z,100131.91
2022-08-30T04:40:38.857Z,100142.31
2022-08-30T04:43:06.558Z,100140.66
2022-08-30T04:45:34.290Z,100139.78
2022-08-30T04:48:03.812Z,100144.13
2022-08-30T04:50:31.548Z,100142.38
2022-08-30T04:52:59.694Z,100149.31
2022-08-30T04:55:28.116Z,100151.09
2022-08-30T04:57:56.380Z,100147.59
2022-08-30T05:00:24.132Z,100148.47
2022-08-30T05:02:53.888Z,100151.94
2022-08-30T05:05:41.713Z,100147.59
2022-08-30T05:08:10.990Z,100140.66
2022-08-30T05:10:40.569Z,100133.72
2022-08-30T05:13:08.589Z,100145.88
2022-08-30T05:15:37.241Z,100144.13
2022-08-30T05:18:05.772Z,100145.84
2022-08-30T05:20:35.349Z,100156.28
2022-08-30T05:23:03.098Z,100158.00
2022-08-30T05:25:34.398Z,100146.72
2022-08-30T05:28:02.077Z,100154.53
2022-08-30T05:30:32.938Z,100156.25
2022-08-30T05:33:00.629Z,100156.28
2022-08-30T05:35:28.294Z,100155.41
2022-08-30T05:37:57.627Z,100164.94
2022-08-30T05:40:26.018Z,100172.72
2022-08-30T05:42:56.909Z,100182.25
2022-08-30T05:45:24.859Z,100180.47
2022-08-30T05:47:52.473Z,100170.06
2022-08-30T05:50:20.361Z,100168.31
2022-08-30T05:52:47.974Z,100166.56
2022-08-30T05:55:18.898Z,100169.94
2022-08-30T05:57:46.612Z,100157.75
2022-08-30T06:00:17.543Z,100159.50
2022-08-30T06:02:45.848Z,100156.91
2022-08-30T06:05:14.410Z,100162.88
2022-08-30T06:07:43.295Z,100152.41
2022-08-30T06:10:12.222Z,100155.91
2022-08-30T06:12:41.534Z,100162.84
2022-08-30T06:15:10.126Z,100159.41
2022-08-30T06:17:39.622Z,100157.56
2022-08-30T06:20:08.970Z,100160.19
2022-08-30T06:22:38.591Z,100157.63
2022-08-30T06:25:06.998Z,100154.13
2022-08-30T06:27:34.653Z,100155.00
2022-08-30T06:30:04.170Z,100153.25
2022-08-30T06:32:31.760Z,100154.03
2022-08-30T06:34:59.534Z,100157.47
2022-08-30T06:37:30.066Z,100158.16
2022-08-30T06:39:58.465Z,100157.19
2022-08-30T06:42:31.616Z,100155.34
2022-08-30T06:44:59.341Z,100153.50
2022-08-30T06:47:28.636Z,100154.25
2022-08-30T06:49:56.380Z,100155.06
2022-08-30T06:52:24.068Z,100163.66
2022-08-30T06:54:51.845Z,100172.97
2022-08-30T06:57:19.475Z,100166.63
2022-08-30T06:59:47.126Z,100169.09
2022-08-30T07:02:14.828Z,100165.41
2022-08-30T07:04:43.897Z,100169.75
2022-08-30T07:07:11.988Z,100167.94
2022-08-30T07:09:43.093Z,100173.97
2022-08-30T07:12:11.926Z,100178.19
2022-08-30T07:14:40.713Z,100171.09
2022-08-30T07:17:24.125Z,100165.78
2022-08-30T07:19:53.338Z,100162.16
2022-08-30T07:22:22.148Z,100158.41
2022-08-30T07:24:50.153Z,100162.53
2022-08-30T07:27:17.737Z,100161.44
2022-08-30T07:29:45.536Z,100160.34
2022-08-30T07:32:13.314Z,100157.75
2022-08-30T07:34:41.619Z,100155.91
2022-08-30T07:37:10.611Z,100154.84
2022-08-30T07:39:48.015Z,100160.66
2022-08-30T07:42:16.191Z,100170.19
2022-08-30T07:44:43.846Z,100168.97
2022-08-30T07:47:11.507Z,100162.56
2022-08-30T07:49:39.363Z,100171.84
2022-08-30T07:52:07.041Z,100161.13
2022-08-30T07:54:36.088Z,100162.53
2022-08-30T07:57:03.759Z,100158.84
2022-08-30T07:59:34.193Z,100164.66
2022-08-30T08:02:03.765Z,100160.00
2022-08-30T08:04:31.564Z,100165.69
2022-08-30T08:06:59.249Z,100158.34
2022-08-30T08:09:26.818Z,100152.72
2022-08-30T08:11:55.912Z,100153.47
2022-08-30T08:14:24.206Z,100148.91
2022-08-30T08:16:51.856Z,100147.94
2022-08-30T08:19:19.603Z,100143.41
2022-08-30T08:21:48.642Z,100148.47
2022-08-30T08:24:18.045Z,100143.63
2022-08-30T08:26:45.684Z,100147.53
2022-08-30T08:29:14.644Z,100145.59
2022-08-30T08:31:43.113Z,100153.09
2022-08-30T08:34:11.619Z,100154.38
2022-08-30T08:36:39.352Z,100148.84
2022-08-30T08:39:08.913Z,100144.00
2022-08-30T08:41:50.673Z,100148.09
2022-08-30T08:44:34.731Z,100140.94
2022-08-30T08:47:12.285Z,100134.38
2022-08-30T08:49:44.772Z,100141.16
2022-08-30T08:52:38.384Z,100137.94
2022-08-30T08:55:10.477Z,100135.75
2022-08-30T08:57:38.288Z,100137.16
2022-08-30T09:00:09.031Z,100133.22
2022-08-30T09:02:42.696Z,100130.03
2022-08-30T09:05:14.393Z,100122.63
2022-08-30T09:07:47.856Z,100129.41
2022-08-30T09:10:18.313Z,100129.72
2022-08-30T09:12:50.737Z,100129.72
2022-08-30T09:15:23.884Z,100123.84
2022-08-30T09:17:53.102Z,100120.13
2022-08-30T09:20:30.361Z,100120.56
2022-08-30T09:22:58.913Z,100127.22
2022-08-30T09:25:29.916Z,100121.34
2022-08-30T09:28:11.774Z,100120.19
2022-08-30T09:30:41.336Z,100117.44
2022-08-30T09:33:20.786Z,100116.19
2022-08-30T09:35:52.041Z,100115.66
2022-08-30T09:38:22.581Z,100115.31
2022-08-30T09:40:52.129Z,100115.56
2022-08-30T09:46:16.618Z,100110.41
2022-08-30T09:48:45.837Z,100106.91
2022-08-30T09:51:45.727Z,100104.38
2022-08-30T09:54:20.686Z,100104.78
2022-08-30T09:57:03.165Z,100097.41
2022-08-30T09:59:42.223Z,100091.84
2022-08-30T10:02:28.847Z,100097.72
2022-08-30T10:05:06.528Z,100087.75
2022-08-30T10:07:42.785Z,100091.94
2022-08-30T10:10:17.336Z,100083.97
2022-08-30T10:12:54.450Z,100077.31
2022-08-30T10:15:30.789Z,100096.53
2022-08-30T10:18:08.440Z,100080.16
2022-08-30T10:20:42.732Z,100079.31
2022-08-30T10:23:16.042Z,100070.03
2022-08-30T10:25:49.954Z,100069.97
2022-08-30T10:28:23.443Z,100069.88
2022-08-30T10:30:57.146Z,100059.94
2022-08-30T10:33:31.948Z,100068.06
2022-08-30T10:36:04.401Z,100064.66
2022-08-30T10:38:40.172Z,100056.63
2022-08-30T10:41:17.077Z,100060.59
2022-08-30T10:43:55.419Z,100047.16
2022-08-30T10:46:30.571Z,100051.31
2022-08-30T10:49:01.888Z,100047.78
2022-08-30T10:51:33.686Z,100051.91
2022-08-30T10:54:09.144Z,100040.59
2022-08-30T10:56:42.137Z,100053.78
2022-08-30T10:59:11.995Z,100042.47
2022-08-30T11:02:09.865Z,100050.09
2022-08-30T11:05:08.576Z,100044.88
2022-08-30T11:07:45.015Z,100044.88
2022-08-30T11:10:33.901Z,100051.44
2022-08-30T11:13:04.916Z,100039.06
2022-08-30T11:15:36.435Z,100034.28
2022-08-30T11:18:12.536Z,100035.94
2022-08-30T11:20:44.782Z,100027.22
2022-08-30T11:23:27.293Z,100037.81
2022-08-30T11:26:01.894Z,100030.66
2022-08-30T11:29:03.473Z,100025.31
2022-08-30T11:31:42.268Z,100032.91
2022-08-30T11:34:11.388Z,100033.88
2022-08-30T11:37:09.555Z,100035.19
2022-08-30T11:39:54.035Z,100033.81
2022-08-30T11:42:35.673Z,100043.31
2022-08-30T11:45:36.935Z,100033.94
2022-08-30T11:48:07.309Z,100031.97
2022-08-30T11:50:43.388Z,100039.22
2022-08-30T11:53:24.814Z,100034.59
2022-08-30T11:56:08.502Z,100028.59
2022-08-30T11:58:48.910Z,100030.09
2022-08-30T12:01:41.933Z,100028.28
2022-08-30T12:04:15.027Z,100029.47
2022-08-30T12:06:56.868Z,100026.06
2022-08-30T12:10:04.579Z,100018.31
2022-08-30T12:12:53.057Z,100012.78
2022-08-30T12:15:53.244Z,100022.09
2022-08-30T12:18:28.222Z,100026.47
2022-08-30T12:21:01.587Z,100015.53
2022-08-30T12:23:34.865Z,100009.78
2022-08-30T12:26:15.927Z,100014.03
2022-08-30T12:28:48.723Z,100008.69
2022-08-30T12:31:19.706Z,100010.94
2022-08-30T12:33:50.766Z,100003.28
2022-08-30T12:36:35.241Z,100004.56
2022-08-30T12:39:07.861Z,99996.34
2022-08-30T12:41:35.728Z,99995.25
2022-08-30T12:44:17.333Z,99982.09
2022-08-30T12:46:48.280Z,99988.38
2022-08-30T12:49:19.257Z,99982.88
2022-08-30T12:51:47.673Z,99975.34
2022-08-30T12:54:20.121Z,99982.28
2022-08-30T12:57:19.056Z,99978.53
2022-08-30T12:59:58.530Z,99983.91
2022-08-30T13:02:29.898Z,99973.69
2022-08-30T13:04:58.411Z,99972.44
2022-08-30T13:07:32.901Z,99964.69
2022-08-30T13:10:13.808Z,99966.78
2022-08-30T13:12:41.674Z,99962.34
2022-08-30T13:15:17.848Z,99956.69
2022-08-30T13:17:46.720Z,99952.66
2022-08-30T13:20:27.239Z,99955.66
2022-08-30T13:23:03.753Z,99954.94
2022-08-30T13:25:32.953Z,99944.09
2022-08-30T13:28:01.877Z,99941.91
2022-08-30T13:30:32.049Z,99944.81
2022-08-30T13:33:01.189Z,99932.25
2022-08-30T13:35:31.090Z,99938.09
2022-08-30T13:38:01.691Z,99935.41
2022-08-30T13:40:29.503Z,99925.09
2022-08-30T13:42:58.788Z,99919.31
2022-08-30T13:45:42.569Z,99918.00
2022-08-30T13:48:13.635Z,99924.59
2022-08-30T13:50:42.877Z,99916.13
2022-08-30T13:53:11.174Z,99907.38
2022-08-30T13:55:40.702Z,99898.06
2022-08-30T13:58:08.449Z,99896.84
2022-08-30T14:00:40.574Z,99905.69
2022-08-30T14:03:08.275Z,99906.38
2022-08-30T14:06:15.739Z,99903.44
2022-08-30T14:08:48.798Z,99905.56
2022-08-30T14:11:21.170Z,99894.41
2022-08-30T14:16:41.349Z,99878.91
2022-08-30T14:19:10.121Z,99875.06
2022-08-30T14:21:40.457Z,99866.91
2022-08-30T14:24:08.857Z,99869.91
2022-08-30T14:26:39.431Z,99876.91
2022-08-30T14:29:09.481Z,99875.59
2022-08-30T14:31:38.282Z,99868.66
2022-08-30T14:34:07.247Z,99870.44
2022-08-30T14:36:36.499Z,99866.00
2022-08-30T14:39:08.607Z,99858.19
2022-08-30T14:41:40.125Z,99863.28
2022-08-30T14:44:11.044Z,99857.72
2022-08-30T14:46:38.784Z,99854.63
2022-08-30T14:49:08.153Z,99858.75
2022-08-30T14:51:39.256Z,99864.59
2022-08-30T14:54:09.209Z,99861.31
2022-08-30T14:56:39.050Z,99853.66
2022-08-30T14:59:07.448Z,99849.41
2022-08-30T15:01:37.307Z,99852.88
2022-08-30T15:04:07.386Z,99853.91
2022-08-30T15:06:36.771Z,99846.72
2022-08-30T15:09:05.785Z,99846.78
2022-08-30T15:11:35.646Z,99843.84
2022-08-30T15:14:03.296Z,99848.03
2022-08-30T15:16:34.787Z,99847.91
2022-08-30T15:19:03.364Z,99840.91
2022-08-30T15:21:33.656Z,99843.38
2022-08-30T15:24:02.688Z,99841.56
2022-08-30T15:26:30.637Z,99837.03
2022-08-30T15:28:59.700Z,99841.91
2022-08-30T15:31:29.104Z,99837.50
2022-08-30T15:33:56.809Z,99842.69
2022-08-30T15:36:24.754Z,99844.97
2022-08-30T15:38:55.245Z,99838.00
2022-08-30T15:41:23.911Z,99830.19
2022-08-30T15:43:52.734Z,99831.06
2022-08-30T15:46:24.033Z,99828.50
2022-08-30T15:49:01.515Z,99830.06
2022-08-30T15:51:30.805Z,99819.78
2022-08-30T15:54:09.418Z,99824.44
2022-08-30T15:56:40.140Z,99826.91
2022-08-30T15:59:10.742Z,99824.91
2022-08-30T16:01:39.811Z,99818.13
2022-08-30T16:04:08.118Z,99817.25
2022-08-30T16:06:37.541Z,99814.66
2022-08-30T16:09:05.787Z,99812.91
2022-08-30T16:11:34.074Z,99812.59
2022-08-30T16:14:02.461Z,99815.28
2022-08-30T16:16:31.873Z,99821.91
2022-08-30T16:19:01.031Z,99823.44
2022-08-30T16:21:30.495Z,99827.22
2022-08-30T16:24:00.762Z,99816.88
2022-08-30T16:26:30.286Z,99814.88
2022-08-30T16:28:58.728Z,99816.44
2022-08-30T16:31:28.550Z,99812.47
2022-08-30T16:33:57.342Z,99809.00
2022-08-30T16:36:33.013Z,99813.34
2022-08-30T16:39:01.489Z,99812.81
2022-08-30T16:41:29.344Z,99822.56
2022-08-30T16:44:00.717Z,99817.28
2022-08-30T16:46:28.885Z,99822.78
2022-08-30T16:48:58.391Z,99819.34
2022-08-30T16:51:29.024Z,99818.91
2022-08-30T16:53:58.869Z,99820.25
2022-08-30T16:56:29.517Z,99806.41
2022-08-30T16:59:02.957Z,99813.72
2022-08-30T17:01:34.671Z,99809.75
2022-08-30T17:04:05.912Z,99814.16
2022-08-30T17:06:33.721Z,99814.84
2022-08-30T17:09:05.979Z,99814.66
2022-08-30T17:11:33.824Z,99815.28
2022-08-30T17:14:01.717Z,99818.09
2022-08-30T17:16:30.683Z,99820.91
2022-08-30T17:21:47.057Z,99828.84
2022-08-30T17:24:16.039Z,99834.75
2022-08-30T17:26:44.564Z,99828.88
2022-08-30T17:29:12.892Z,99842.53
2022-08-30T17:31:46.271Z,99843.31
2022-08-30T17:34:21.050Z,99846.59
2022-08-30T17:36:51.042Z,99848.72
2022-08-30T17:39:20.067Z,99847.31
2022-08-30T17:41:50.057Z,99847.06
2022-08-30T17:44:19.066Z,99849.47
2022-08-30T17:46:46.901Z,99843.44
2022-08-30T17:49:15.086Z,99850.53
2022-08-30T17:51:43.443Z,99848.28
2022-08-30T17:54:12.674Z,99845.69
2022-08-30T17:56:42.232Z,99850.75
2022-08-30T17:59:11.448Z,99856.72
2022-08-30T18:01:41.696Z,99854.41
2022-08-30T18:04:10.656Z,99861.97
2022-08-30T18:06:38.406Z,99867.88
2022-08-30T18:09:09.072Z,99863.19
2022-08-30T18:11:39.474Z,99868.16
2022-08-30T18:14:10.840Z,99869.53
2022-08-30T18:16:47.442Z,99877.22
2022-08-30T18:19:21.400Z,99876.06
2022-08-30T18:21:49.012Z,99879.22
2022-08-30T18:24:16.954Z,99882.34
2022-08-30T18:26:44.837Z,99882.78
2022-08-30T18:29:14.203Z,99881.59
2022-08-30T18:31:41.932Z,99879.16
2022-08-30T18:34:12.512Z,99880.66
2022-08-30T18:36:40.341Z,99886.38
2022-08-30T18:39:09.137Z,99881.47
2022-08-30T18:41:42.155Z,99892.44
2022-08-30T18:44:27.223Z,99894.41
2022-08-30T18:47:00.426Z,99893.88
2022-08-30T18:49:28.610Z,99895.91
2022-08-30T18:51:56.379Z,99898.69
2022-08-30T18:54:24.388Z,99898.28
2022-08-30T18:56:52.023Z,99903.88
2022-08-30T18:59:20.347Z,99905.09
2022-08-30T19:01:48.822Z,99907.06
2022-08-30T19:04:22.349Z,99902.16
2022-08-30T19:06:58.175Z,99901.63
2022-08-30T19:09:27.129Z,99908.16
2022-08-30T19:11:55.705Z,99901.44
2022-08-30T19:14:23.426Z,99906.88
2022-08-30T19:16:56.213Z,99917.66
2022-08-30T19:19:25.552Z,99918.91
2022-08-30T19:21:53.279Z,99913.09
2022-08-30T19:24:21.921Z,99916.31
2022-08-30T19:26:49.781Z,99917.63
2022-08-30T19:29:17.488Z,99916.13
2022-08-30T19:31:45.109Z,99924.25
2022-08-30T19:34:13.483Z,99916.66
2022-08-30T19:36:42.422Z,99923.06
2022-08-30T19:39:12.695Z,99917.25
2022-08-30T19:41:40.721Z,99920.00
2022-08-30T19:44:08.375Z,99917.69
2022-08-30T19:46:37.528Z,99924.88
2022-08-30T19:49:08.399Z,99929.34
2022-08-30T19:51:37.090Z,99930.63
2022-08-30T19:54:07.080Z,99937.81
2022-08-30T19:56:35.768Z,99945.88
2022-08-30T19:59:03.908Z,99942.59
2022-08-30T20:01:33.608Z,99954.16
2022-08-30T20:04:02.570Z,99950.81
2022-08-30T20:06:30.988Z,99949.19
2022-08-30T20:09:00.489Z,99949.28
2022-08-30T20:11:29.814Z,99941.78
2022-08-30T20:13:58.620Z,99940.13
2022-08-30T20:19:16.996Z,99948.41
2022-08-30T20:21:47.029Z,99942.50
2022-08-30T20:24:17.682Z,99951.41
2022-08-30T20:24:25.138Z,99829.34
2022-08-30T20:26:46.658Z,99939.22
2022-08-30T20:29:14.322Z,99943.75
2022-08-30T20:31:41.927Z,99940.28
2022-08-30T20:34:09.703Z,99945.72
2022-08-30T20:36:39.722Z,99938.81
2022-08-30T20:39:09.583Z,99924.94
2022-08-30T20:41:38.185Z,99937.34
2022-08-30T20:44:11.989Z,99936.50
2022-08-30T20:46:43.760Z,99937.53
2022-08-30T20:49:12.125Z,99935.88
2022-08-30T20:51:39.753Z,99939.53
2022-08-30T20:54:08.844Z,99944.84
2022-08-30T20:56:36.838Z,99943.13
2022-08-30T20:59:05.788Z,99937.94
2022-08-30T21:01:38.345Z,99938.06
2022-08-30T21:04:06.778Z,99938.22
2022-08-30T21:06:37.354Z,99929.59
2022-08-30T21:09:06.476Z,99927.94
2022-08-30T21:11:34.645Z,99931.59
2022-08-30T21:14:02.878Z,99928.22
2022-08-30T21:16:32.023Z,99929.16
2022-08-30T21:19:01.751Z,99928.31
2022-08-30T21:21:30.402Z,99932.72
2022-08-30T21:24:00.414Z,99919.69
2022-08-30T21:26:28.740Z,99928.50
2022-08-30T21:28:57.465Z,99926.81
2022-08-30T21:31:27.203Z,99932.97
2022-08-30T21:33:56.131Z,99935.63
2022-08-30T21:36:44.581Z,99945.25
2022-08-30T21:39:15.380Z,99947.13
2022-08-30T21:41:43.878Z,99939.25
2022-08-30T21:44:14.846Z,99942.78
2022-08-30T21:46:43.292Z,99948.13
2022-08-30T21:49:12.649Z,99949.00
2022-08-30T21:51:44.260Z,99954.19
2022-08-30T21:54:13.941Z,99956.88
2022-08-30T21:56:43.461Z,99952.63
2022-08-30T21:59:12.519Z,99965.75
2022-08-30T22:01:43.023Z,99969.22
2022-08-30T22:04:11.878Z,99974.41
2022-08-30T22:06:45.107Z,99976.13
2022-08-30T22:09:14.376Z,99982.34
2022-08-30T22:11:43.075Z,99986.78
2022-08-30T22:14:14.524Z,99983.25
2022-08-30T22:16:44.464Z,99994.59
2022-08-30T22:19:12.641Z,99991.97
2022-08-30T22:21:42.734Z,99989.25
2022-08-30T22:24:10.953Z,99989.09
2022-08-30T22:26:39.462Z,99979.59
2022-08-30T22:29:08.914Z,99980.47
2022-08-30T22:31:41.291Z,99982.34
2022-08-30T22:34:10.932Z,99993.59
2022-08-30T22:36:39.459Z,99995.38
2022-08-30T22:39:09.778Z,100004.09
2022-08-30T22:41:38.063Z,99992.72
2022-08-30T22:44:06.316Z,100009.34
2022-08-30T22:46:36.506Z,100010.25
2022-08-30T22:49:05.585Z,100015.50
2022-08-30T22:51:33.654Z,100018.19
2022-08-30T22:54:01.808Z,100035.66
2022-08-30T22:56:31.940Z,100046.16
2022-08-30T22:58:59.587Z,100059.28
2022-08-30T23:01:30.369Z,100076.88
2022-08-30T23:03:58.905Z,100091.97
2022-08-30T23:06:26.705Z,100104.97
2022-08-30T23:08:55.419Z,100121.38
2022-08-30T23:11:24.401Z,100131.47
2022-08-30T23:13:56.728Z,100140.94
2022-08-30T23:16:25.715Z,100137.25
2022-08-30T23:18:53.471Z,100141.34
2022-08-30T23:21:23.289Z,100152.31
2022-08-30T23:24:09.789Z,100171.50
2022-08-30T23:26:55.024Z,100167.69
2022-08-30T23:29:42.188Z,100171.44
2022-08-30T23:32:27.692Z,100176.59
2022-08-30T23:35:12.789Z,100180.38
2022-08-30T23:37:58.314Z,100170.72
2022-08-30T23:40:43.878Z,100183.78
2022-08-30T23:43:29.416Z,100174.31
2022-08-30T23:46:19.579Z,100189.88
2022-08-30T23:49:05.558Z,100187.22
2022-08-30T23:51:50.843Z,100185.31
2022-08-30T23:54:36.237Z,100179.88
2022-08-30T23:57:21.676Z,100192.16
